createdAt,value
2023-09-18T00:01:27.604Z,4.57
2023-09-18T00:06:27.960Z,4.57
2023-09-18T00:11:29.910Z,4.40
2023-09-18T00:16:32.588Z,4.30
2023-09-18T00:21:39.510Z,4.43
2023-09-18T00:26:43.047Z,5.23
2023-09-18T00:31:43.384Z,4.40
2023-09-18T00:36:44.331Z,4.20
2023-09-18T00:41:51.050Z,4.03
2023-09-18T00:46:52.249Z,4.10
2023-09-18T00:51:52.616Z,4.80
2023-09-18T00:57:00.598Z,4.67
2023-09-18T01:02:02.973Z,4.27
2023-09-18T01:07:05.431Z,4.60
2023-09-18T01:12:14.174Z,4.53
2023-09-18T01:17:16.306Z,5.17
2023-09-18T01:22:18.498Z,4.57
2023-09-18T01:27:21.641Z,4.13
2023-09-18T01:32:21.524Z,5.07
2023-09-18T01:37:24.149Z,5.00
2023-09-18T01:42:26.384Z,4.70
2023-09-18T01:47:28.960Z,4.00
2023-09-18T01:52:28.358Z,4.13
2023-09-18T01:57:31.800Z,5.10
2023-09-18T02:02:52.411Z,4.50
2023-09-18T02:07:52.583Z,5.83
2023-09-18T02:12:55.510Z,4.67
2023-09-18T02:17:56.771Z,4.77
2023-09-18T02:22:58.315Z,5.30
2023-09-18T02:27:59.736Z,4.63
2023-09-18T02:33:00.144Z,4.80
2023-09-18T02:37:59.908Z,4.90
2023-09-18T02:43:04.200Z,4.60
2023-09-18T02:48:05.762Z,4.43
2023-09-18T02:53:06.343Z,5.60
2023-09-18T02:58:07.821Z,4.73
2023-09-18T03:03:08.162Z,5.03
2023-09-18T03:08:08.762Z,4.90
2023-09-18T03:13:12.233Z,5.00
2023-09-18T03:18:12.938Z,4.80
2023-09-18T03:23:14.193Z,4.80
2023-09-18T03:28:16.629Z,4.67
2023-09-18T03:33:17.792Z,5.87
2023-09-18T03:38:17.841Z,4.90
2023-09-18T03:43:20.297Z,5.70
2023-09-18T03:48:22.550Z,5.57
2023-09-18T03:53:23.762Z,6.23
2023-09-18T03:58:25.209Z,5.60
2023-09-18T04:03:28.321Z,5.17
2023-09-18T04:08:28.803Z,5.63
2023-09-18T04:13:30.712Z,5.20
2023-09-18T04:18:30.987Z,6.17
2023-09-18T04:23:31.101Z,4.77
2023-09-18T04:28:41.117Z,5.23
2023-09-18T04:33:41.274Z,5.03
2023-09-18T04:38:41.758Z,5.23
2023-09-18T04:43:44.730Z,5.40
2023-09-18T04:48:44.644Z,5.17
2023-09-18T04:53:44.957Z,5.13
2023-09-18T04:58:47.314Z,5.10
2023-09-18T05:03:47.854Z,4.40
2023-09-18T05:08:47.941Z,4.77
2023-09-18T05:13:49.998Z,5.00
2023-09-18T05:18:50.397Z,4.87
2023-09-18T05:23:53.964Z,5.57
2023-09-18T05:28:57.103Z,5.87
2023-09-18T05:33:57.032Z,4.87
2023-09-18T05:38:57.145Z,4.90
2023-09-18T05:44:00.196Z,4.93
2023-09-18T05:49:00.078Z,5.13
2023-09-18T05:54:00.268Z,5.20
2023-09-18T05:59:02.046Z,5.80
2023-09-18T06:04:02.274Z,4.90
2023-09-18T06:09:03.145Z,5.60
2023-09-18T06:14:05.220Z,5.20
2023-09-18T06:19:05.437Z,5.10
2023-09-18T06:24:05.391Z,5.13
2023-09-18T06:29:07.073Z,5.67
2023-09-18T06:34:08.535Z,5.23
2023-09-18T06:39:12.888Z,5.20
2023-09-18T06:44:13.577Z,5.37
2023-09-18T06:49:16.115Z,5.70
2023-09-18T06:54:15.361Z,4.63
2023-09-18T06:59:18.099Z,5.07
2023-09-18T07:04:17.337Z,5.07
2023-09-18T07:09:20.395Z,4.57
2023-09-18T07:14:21.710Z,4.50
2023-09-18T07:19:21.653Z,4.40
2023-09-18T07:24:22.986Z,4.40
2023-09-18T07:29:26.565Z,5.50
2023-09-18T07:34:28.166Z,4.70
2023-09-18T07:39:30.750Z,4.83
2023-09-18T07:44:33.791Z,4.37
2023-09-18T07:49:34.283Z,4.90
2023-09-18T07:54:34.855Z,4.40
2023-09-18T07:59:36.430Z,5.10
2023-09-18T08:04:36.820Z,4.03
2023-09-18T08:09:38.104Z,4.30
2023-09-18T08:14:40.583Z,4.67
2023-09-18T08:19:41.965Z,3.70
2023-09-18T08:24:42.292Z,3.40
2023-09-18T08:29:44.198Z,4.00
2023-09-18T08:34:44.563Z,3.73
2023-09-18T08:39:44.755Z,4.20
2023-09-18T08:44:52.529Z,4.57
2023-09-18T08:50:03.495Z,4.10
2023-09-18T08:55:04.868Z,5.10
2023-09-18T09:00:09.662Z,4.80
2023-09-18T09:05:10.559Z,3.90
2023-09-18T09:10:11.582Z,4.10
2023-09-18T09:15:14.244Z,5.30
2023-09-18T09:20:15.596Z,4.20
2023-09-18T09:25:29.699Z,4.77
2023-09-18T09:30:32.422Z,4.70
2023-09-18T09:35:34.351Z,4.30
2023-09-18T09:40:35.050Z,4.30
2023-09-18T09:45:38.831Z,4.80
2023-09-18T09:50:50.538Z,5.03
2023-09-18T09:55:58.191Z,4.93
2023-09-18T10:01:07.949Z,4.90
2023-09-18T10:11:29.542Z,4.17
2023-09-18T10:16:35.517Z,3.73
2023-09-18T10:21:45.123Z,4.00
2023-09-18T10:26:51.683Z,4.80
2023-09-18T10:31:54.077Z,4.17
2023-09-18T10:36:58.597Z,4.20
2023-09-18T10:42:00.241Z,3.80
2023-09-18T10:47:06.855Z,4.17
2023-09-18T10:52:08.535Z,4.00
2023-09-18T10:57:11.198Z,3.80
2023-09-18T11:02:16.772Z,3.67
2023-09-18T11:07:23.521Z,4.40
2023-09-18T11:12:43.730Z,3.50
2023-09-18T11:17:45.485Z,3.83
2023-09-18T11:22:51.554Z,4.00
2023-09-18T11:27:57.931Z,4.03
2023-09-18T11:33:01.558Z,3.90
2023-09-18T11:38:09.307Z,3.63
2023-09-18T11:43:27.075Z,3.63
2023-09-18T11:48:30.115Z,3.73
2023-09-18T11:53:31.766Z,4.30
2023-09-18T11:58:48.874Z,3.13
2023-09-18T12:03:56.190Z,2.93
2023-09-18T12:08:57.730Z,2.93
2023-09-18T12:13:59.950Z,2.97
2023-09-18T12:19:01.796Z,3.00
2023-09-18T12:24:03.016Z,2.60
2023-09-18T12:29:03.932Z,2.37
2023-09-18T12:34:09.744Z,2.77
2023-09-18T12:39:11.325Z,2.10
2023-09-18T12:44:11.876Z,1.90
2023-09-18T12:49:30.105Z,2.10
2023-09-18T12:54:43.381Z,2.03
2023-09-18T12:59:43.851Z,2.20
2023-09-18T13:04:58.091Z,2.10
2023-09-18T13:10:05.345Z,2.57
2023-09-18T13:15:10.913Z,1.90
2023-09-18T13:20:16.475Z,1.70
2023-09-18T13:25:25.055Z,1.50
2023-09-18T13:30:26.936Z,2.07
2023-09-18T13:35:29.116Z,1.87
2023-09-18T13:40:28.897Z,2.00
2023-09-18T13:45:29.660Z,1.63
2023-09-18T13:50:31.077Z,1.60
2023-09-18T13:55:31.982Z,1.70
2023-09-18T14:00:32.330Z,1.60
2023-09-18T14:05:36.306Z,2.57
2023-09-18T14:10:37.049Z,1.70
2023-09-18T14:15:37.412Z,1.60
2023-09-18T14:20:39.450Z,1.70
2023-09-18T14:25:39.469Z,1.63
2023-09-18T14:30:39.681Z,1.50
2023-09-18T14:35:41.322Z,1.83
2023-09-18T14:40:44.855Z,1.80
2023-09-18T14:45:43.886Z,1.63
2023-09-18T14:50:48.737Z,1.50
2023-09-18T14:55:48.313Z,1.70
2023-09-18T15:00:49.434Z,2.10
2023-09-18T15:05:53.348Z,2.10
2023-09-18T15:10:54.612Z,1.70
2023-09-18T15:15:54.969Z,1.70
2023-09-18T15:20:58.010Z,1.83
2023-09-18T15:25:59.179Z,1.70
2023-09-18T15:30:57.868Z,1.73
2023-09-18T15:35:59.329Z,1.57
2023-09-18T15:41:00.073Z,2.00
2023-09-18T15:46:01.394Z,1.43
2023-09-18T15:51:05.225Z,1.97
2023-09-18T15:56:05.297Z,1.70
2023-09-18T16:01:13.707Z,1.87
2023-09-18T16:06:17.110Z,2.30
2023-09-18T16:11:17.392Z,1.60
2023-09-18T16:16:17.425Z,2.30
2023-09-18T16:21:19.346Z,1.50
2023-09-18T16:26:18.842Z,1.87
2023-09-18T16:31:18.659Z,2.30
2023-09-18T16:36:20.890Z,1.47
2023-09-18T16:41:21.399Z,1.53
2023-09-18T16:46:21.473Z,1.63
2023-09-18T16:51:22.940Z,1.40
2023-09-18T16:56:23.021Z,1.40
2023-09-18T17:01:25.012Z,1.77
2023-09-18T17:06:25.412Z,1.90
2023-09-18T17:11:27.403Z,1.30
2023-09-18T17:16:27.806Z,1.70
2023-09-18T17:21:29.943Z,1.90
2023-09-18T17:26:30.908Z,1.87
2023-09-18T17:31:31.645Z,1.57
2023-09-18T17:36:40.962Z,1.73
2023-09-18T17:41:42.012Z,1.57
2023-09-18T17:46:42.429Z,1.60
2023-09-18T17:51:45.243Z,2.00
2023-09-18T17:56:45.688Z,2.70
2023-09-18T18:01:46.870Z,2.10
2023-09-18T18:06:49.114Z,2.07
2023-09-18T18:11:52.317Z,2.10
2023-09-18T18:17:11.092Z,1.70
2023-09-18T18:22:13.709Z,1.77
2023-09-18T18:27:20.547Z,1.63
2023-09-18T18:32:19.730Z,1.60
2023-09-18T18:37:20.960Z,2.00
2023-09-18T18:42:24.011Z,1.73
2023-09-18T18:47:24.468Z,1.70
2023-09-18T18:52:26.308Z,1.90
2023-09-18T18:57:26.349Z,1.90
2023-09-18T19:02:26.539Z,1.87
2023-09-18T19:07:28.598Z,1.90
2023-09-18T19:12:29.681Z,1.83
2023-09-18T19:17:29.865Z,1.93
2023-09-18T19:22:35.165Z,2.00
2023-09-18T19:27:38.906Z,1.70
2023-09-18T19:32:39.958Z,2.00
2023-09-18T19:37:41.868Z,1.13
2023-09-18T19:42:43.998Z,1.87
2023-09-18T19:47:45.285Z,2.20
2023-09-18T19:52:47.802Z,1.90
2023-09-18T19:57:49.073Z,1.50
2023-09-18T20:02:49.315Z,2.40
2023-09-18T20:07:51.460Z,2.27
2023-09-18T20:12:53.396Z,2.43
2023-09-18T20:17:54.165Z,1.97
2023-09-18T20:22:55.557Z,1.90
2023-09-18T20:27:57.016Z,2.00
2023-09-18T20:32:58.725Z,2.10
2023-09-18T20:38:03.078Z,2.33
2023-09-18T20:43:03.417Z,1.70
2023-09-18T20:48:03.728Z,2.20
2023-09-18T20:53:07.575Z,2.10
2023-09-18T20:58:09.374Z,1.67
2023-09-18T21:03:10.066Z,1.40
2023-09-18T21:08:12.543Z,1.30
2023-09-18T21:13:13.277Z,1.10
2023-09-18T21:18:13.166Z,1.30
2023-09-18T21:23:16.027Z,1.03
2023-09-18T21:28:16.436Z,1.23
2023-09-18T21:33:17.320Z,1.37
2023-09-18T21:38:20.120Z,1.30
2023-09-18T21:43:20.887Z,1.00
2023-09-18T21:48:21.332Z,0.80
2023-09-18T21:53:24.517Z,0.77
2023-09-18T21:58:24.304Z,1.13
2023-09-18T22:03:24.997Z,0.87
2023-09-18T22:08:27.607Z,0.90
2023-09-18T22:13:27.228Z,0.60
2023-09-18T22:18:32.052Z,1.23
2023-09-18T22:23:34.172Z,0.70
2023-09-18T22:28:34.582Z,0.80
2023-09-18T22:33:35.073Z,0.90
2023-09-18T22:38:42.938Z,0.90
2023-09-18T22:44:21.928Z,0.90
2023-09-18T22:49:59.841Z,1.20
2023-09-18T22:55:02.233Z,0.97
2023-09-18T23:00:03.962Z,1.03
2023-09-18T23:05:05.204Z,1.10
2023-09-18T23:10:10.228Z,0.93
2023-09-18T23:15:12.813Z,1.10
2023-09-18T23:20:15.572Z,0.90
2023-09-18T23:25:17.808Z,1.20
2023-09-18T23:30:20.982Z,0.97
2023-09-18T23:35:22.998Z,1.33
2023-09-18T23:40:25.470Z,1.10
2023-09-18T23:45:25.904Z,1.73
2023-09-18T23:50:31.559Z,1.20
2023-09-18T23:55:34.053Z,1.13
